KDCU/DCU METAR and TAF weather

Enter ICAO airport designator
Station Type Date Time Source
KDCU METAR 2018/01/21 11:53 UTC NOAA

KDCU 211153Z AUTO 11003KT 10SM SCT055 BKN080 04/03 A3022 RMK AO2 SLP236 T00440028 10072 20022 53006


Station Type Date Time Source
KDCU Decoded METAR 2018/01/21 11:53 UTC NOAA

PRYOR FIELD, AL, United States (KDCU) 34-39N 086-57W 176M
Jan 21, 2018 - 06:53 AM EST / 2018.01.21 1153 UTC
Wind: from the ESE (110 degrees) at 3 MPH (3 KT):0
Visibility: 10 mile(s):0
Sky conditions: mostly cloudy
Temperature: 39.9 F (4.4 C)
Dew Point: 37.0 F (2.8 C)
Relative Humidity: 89%
Pressure (altimeter): 30.22 in. Hg (1023 hPa)
Pressure tendency: 0.02 inches (0.6 hPa) higher than three hours ago
ob: KDCU 211153Z AUTO 11003KT 10SM SCT055 BKN080 04/03 A3022 RMK AO2 SLP236 T00440028 10072 20022 53006
cycle: 12

Station Type Date Time Source
KDCU TAF UTC NOAA

Error!


Example: see airport list